createdAt,value
2022-10-21T00:00:37.937Z,4.10
2022-10-21T00:03:05.171Z,4.10
2022-10-21T00:05:32.313Z,4.10
2022-10-21T00:07:59.119Z,4.00
2022-10-21T00:10:25.944Z,3.90
2022-10-21T00:12:52.877Z,4.00
2022-10-21T00:15:19.727Z,4.10
2022-10-21T00:17:46.553Z,4.10
2022-10-21T00:20:13.729Z,4.10
2022-10-21T00:22:41.123Z,4.10
2022-10-21T00:25:08.753Z,4.00
2022-10-21T00:27:36.012Z,3.90
2022-10-21T00:30:05.339Z,3.90
2022-10-21T00:32:32.226Z,3.80
2022-10-21T00:34:59.327Z,3.80
2022-10-21T00:37:28.787Z,3.70
2022-10-21T00:39:55.578Z,3.90
2022-10-21T00:42:23.234Z,3.80
2022-10-21T00:45:05.297Z,3.70
2022-10-21T00:48:04.351Z,3.70
2022-10-21T00:50:38.713Z,3.70
2022-10-21T00:53:12.467Z,3.30
2022-10-21T00:55:50.558Z,3.40
2022-10-21T00:58:21.164Z,3.40
2022-10-21T01:00:48.935Z,3.60
2022-10-21T01:03:16.034Z,3.30
2022-10-21T01:05:43.874Z,3.30
2022-10-21T01:08:10.884Z,3.30
2022-10-21T01:10:38.361Z,3.40
2022-10-21T01:13:15.824Z,3.40
2022-10-21T01:16:02.448Z,3.40
2022-10-21T01:18:48.711Z,3.40
2022-10-21T01:21:36.163Z,3.30
2022-10-21T01:24:24.924Z,3.30
2022-10-21T01:27:12.416Z,3.30
2022-10-21T01:30:07.018Z,3.30
2022-10-21T01:33:02.762Z,3.30
2022-10-21T01:35:43.721Z,3.30
2022-10-21T01:38:54.370Z,3.20
2022-10-21T01:41:34.193Z,3.10
2022-10-21T01:44:07.759Z,3.20
2022-10-21T01:46:48.894Z,3.10
2022-10-21T01:49:27.484Z,3.30
2022-10-21T01:51:55.259Z,3.40
2022-10-21T01:54:31.072Z,3.30
2022-10-21T01:56:59.503Z,3.40
2022-10-21T01:59:29.840Z,3.30
2022-10-21T02:01:59.472Z,3.30
2022-10-21T02:04:28.734Z,3.30
2022-10-21T02:06:55.569Z,3.30
2022-10-21T02:09:22.958Z,3.30
2022-10-21T02:11:52.308Z,3.10
2022-10-21T02:14:28.728Z,3.00
2022-10-21T02:16:56.269Z,3.00
2022-10-21T02:19:24.284Z,3.00
2022-10-21T02:21:53.393Z,3.20
2022-10-21T02:24:42.841Z,3.20
2022-10-21T02:27:09.907Z,3.20
2022-10-21T02:29:40.309Z,3.10
2022-10-21T02:32:34.200Z,2.90
2022-10-21T02:35:13.092Z,2.90
2022-10-21T02:37:50.795Z,2.90
2022-10-21T02:40:23.624Z,3.00
2022-10-21T02:43:03.575Z,3.00
2022-10-21T02:45:30.494Z,3.00
2022-10-21T02:47:57.468Z,3.10
2022-10-21T02:50:24.261Z,2.90
2022-10-21T02:52:51.037Z,2.90
2022-10-21T02:55:17.909Z,3.10
2022-10-21T02:57:44.809Z,3.10
2022-10-21T03:00:12.459Z,3.10
2022-10-21T03:02:39.274Z,3.00
2022-10-21T03:05:06.346Z,2.90
2022-10-21T03:07:33.195Z,3.00
2022-10-21T03:10:00.021Z,3.20
2022-10-21T03:12:27.078Z,3.00
2022-10-21T03:14:53.851Z,2.80
2022-10-21T03:17:24.357Z,2.80
2022-10-21T03:19:52.232Z,2.80
2022-10-21T03:22:18.964Z,2.80
2022-10-21T03:24:45.844Z,2.80
2022-10-21T03:27:12.625Z,2.70
2022-10-21T03:29:39.447Z,2.50
2022-10-21T03:32:06.943Z,2.70
2022-10-21T03:34:33.752Z,2.80
2022-10-21T03:37:00.703Z,2.90
2022-10-21T03:39:27.502Z,2.80
2022-10-21T03:41:54.268Z,2.60
2022-10-21T03:44:21.097Z,2.70
2022-10-21T03:46:50.666Z,2.70
2022-10-21T03:49:21.441Z,2.60
2022-10-21T03:51:48.790Z,2.50
2022-10-21T03:54:15.742Z,2.40
2022-10-21T03:56:42.699Z,2.40
2022-10-21T03:59:09.630Z,2.40
2022-10-21T04:01:36.978Z,2.30
2022-10-21T04:04:03.971Z,2.40
2022-10-21T04:06:30.866Z,2.60
2022-10-21T04:08:57.713Z,2.70
2022-10-21T04:11:24.765Z,2.50
2022-10-21T04:13:51.636Z,2.30
2022-10-21T04:16:20.956Z,2.30
2022-10-21T04:18:48.273Z,2.20
2022-10-21T04:21:15.617Z,2.30
2022-10-21T04:23:42.550Z,2.20
2022-10-21T04:26:10.015Z,2.20
2022-10-21T04:28:36.983Z,2.30
2022-10-21T04:31:03.874Z,2.10
2022-10-21T04:33:30.688Z,2.00
2022-10-21T04:35:57.678Z,2.00
2022-10-21T04:38:24.994Z,2.20
2022-10-21T04:40:56.829Z,2.30
2022-10-21T04:43:23.952Z,2.20
2022-10-21T04:45:50.789Z,2.20
2022-10-21T04:48:17.871Z,2.10
2022-10-21T04:50:44.789Z,2.20
2022-10-21T04:53:11.599Z,2.20
2022-10-21T04:55:41.504Z,2.20
2022-10-21T04:58:08.317Z,2.00
2022-10-21T05:00:35.590Z,2.10
2022-10-21T05:03:02.584Z,2.10
2022-10-21T05:05:29.396Z,2.20
2022-10-21T05:07:56.192Z,2.20
2022-10-21T05:10:22.949Z,2.30
2022-10-21T05:12:49.771Z,2.00
2022-10-21T05:15:16.728Z,2.20
2022-10-21T05:17:43.495Z,2.10
2022-10-21T05:20:10.988Z,2.20
2022-10-21T05:22:38.238Z,2.20
2022-10-21T05:25:05.593Z,2.20
2022-10-21T05:27:32.389Z,2.30
2022-10-21T05:29:59.216Z,2.30
2022-10-21T05:32:26.409Z,2.40
2022-10-21T05:34:53.232Z,2.30
2022-10-21T05:37:20.006Z,2.40
2022-10-21T05:39:46.777Z,2.60
2022-10-21T05:42:13.587Z,2.70
2022-10-21T05:44:40.441Z,2.70
2022-10-21T05:47:07.315Z,3.10
2022-10-21T05:49:34.232Z,3.30
2022-10-21T05:52:01.001Z,3.30
2022-10-21T05:54:28.188Z,3.40
2022-10-21T05:56:58.400Z,3.50
2022-10-21T05:59:25.337Z,3.50
2022-10-21T06:01:52.172Z,3.60
2022-10-21T06:04:18.994Z,3.60
2022-10-21T06:06:45.801Z,3.70
2022-10-21T06:09:12.838Z,3.90
2022-10-21T06:11:39.736Z,4.00
2022-10-21T06:14:06.554Z,4.10
2022-10-21T06:16:33.348Z,4.20
2022-10-21T06:19:00.148Z,4.40
2022-10-21T06:21:26.980Z,4.60
2022-10-21T06:23:54.578Z,4.70
2022-10-21T06:26:21.794Z,4.80
2022-10-21T06:28:48.731Z,4.80
2022-10-21T06:31:18.942Z,4.80
2022-10-21T06:33:45.774Z,4.90
2022-10-21T06:36:12.642Z,5.00
2022-10-21T06:38:39.451Z,5.10
2022-10-21T06:41:12.129Z,5.20
2022-10-21T06:43:40.781Z,5.30
2022-10-21T06:46:10.992Z,5.30
2022-10-21T06:48:37.882Z,5.40
2022-10-21T06:51:14.668Z,5.50
2022-10-21T06:53:42.302Z,5.60
2022-10-21T06:56:15.649Z,5.70
2022-10-21T06:58:43.560Z,5.80
2022-10-21T07:01:27.379Z,6.00
2022-10-21T07:04:00.164Z,6.00
2022-10-21T07:06:27.256Z,6.10
2022-10-21T07:08:58.264Z,6.20
2022-10-21T07:11:27.388Z,6.40
2022-10-21T07:13:54.265Z,6.50
2022-10-21T07:16:30.042Z,6.60
2022-10-21T07:18:57.559Z,6.70
2022-10-21T07:21:27.159Z,6.80
2022-10-21T07:23:56.723Z,6.70
2022-10-21T07:26:27.947Z,6.70
2022-10-21T07:28:55.608Z,6.70
2022-10-21T07:31:22.678Z,6.80
2022-10-21T07:33:49.565Z,6.90
2022-10-21T07:36:21.284Z,7.00
2022-10-21T07:38:49.427Z,6.90
2022-10-21T07:41:21.954Z,6.90
2022-10-21T07:43:49.697Z,6.80
2022-10-21T07:46:18.237Z,6.90
2022-10-21T07:48:45.323Z,6.90
2022-10-21T07:51:14.905Z,6.90
2022-10-21T07:53:42.291Z,6.90
2022-10-21T07:56:15.778Z,7.00
2022-10-21T07:58:43.485Z,7.00
2022-10-21T08:01:11.898Z,7.10
2022-10-21T08:03:39.421Z,7.20
2022-10-21T08:06:07.846Z,7.10
2022-10-21T08:08:35.613Z,7.20
2022-10-21T08:11:03.889Z,7.20
2022-10-21T08:13:31.349Z,7.40
2022-10-21T08:15:58.872Z,7.50
2022-10-21T08:18:26.332Z,7.50
2022-10-21T08:20:53.508Z,7.60
2022-10-21T08:23:22.704Z,7.60
2022-10-21T08:25:52.140Z,7.40
2022-10-21T08:28:20.392Z,7.60
2022-10-21T08:30:47.510Z,7.50
2022-10-21T08:33:15.242Z,7.70
2022-10-21T08:35:42.469Z,7.80
2022-10-21T08:38:10.189Z,7.80
2022-10-21T08:40:45.178Z,7.70
2022-10-21T08:43:18.010Z,7.70
2022-10-21T08:46:06.708Z,8.10
2022-10-21T08:49:00.324Z,8.00
2022-10-21T08:51:35.137Z,8.00
2022-10-21T08:54:06.500Z,8.10
2022-10-21T08:56:33.352Z,8.10
2022-10-21T08:59:00.112Z,8.20
2022-10-21T09:01:45.975Z,8.10
2022-10-21T09:04:20.305Z,7.90
2022-10-21T09:07:08.645Z,7.90
2022-10-21T09:10:03.375Z,8.00
2022-10-21T09:12:45.492Z,8.00
2022-10-21T09:15:31.594Z,8.00
2022-10-21T09:18:26.192Z,8.10
2022-10-21T09:21:31.639Z,8.10
2022-10-21T09:24:12.283Z,8.00
2022-10-21T09:26:44.616Z,8.00
2022-10-21T09:29:20.270Z,7.90
2022-10-21T09:31:54.399Z,7.90
2022-10-21T09:34:38.840Z,8.10
2022-10-21T09:37:14.650Z,7.90
2022-10-21T09:39:48.272Z,8.00
2022-10-21T09:42:35.292Z,8.10
2022-10-21T09:45:01.878Z,8.00
2022-10-21T09:47:28.656Z,8.00
2022-10-21T09:50:09.817Z,8.00
2022-10-21T09:52:38.311Z,8.00
2022-10-21T09:55:05.769Z,8.10
2022-10-21T09:57:48.259Z,8.10
2022-10-21T10:00:15.250Z,8.20
2022-10-21T10:02:45.196Z,8.20
2022-10-21T10:05:46.250Z,8.30
2022-10-21T10:08:32.995Z,8.30
2022-10-21T10:11:08.790Z,8.40
2022-10-21T10:13:44.034Z,8.50
2022-10-21T10:16:34.523Z,8.60
2022-10-21T10:19:23.002Z,8.60
2022-10-21T10:22:28.436Z,8.70
2022-10-21T10:25:07.163Z,8.60
2022-10-21T10:27:34.073Z,8.60
2022-10-21T10:30:01.793Z,8.70
2022-10-21T10:32:35.177Z,8.90
2022-10-21T10:35:05.159Z,8.90
2022-10-21T10:37:37.943Z,8.90
2022-10-21T10:40:09.197Z,9.00
2022-10-21T10:42:37.562Z,9.20
2022-10-21T10:45:14.667Z,9.00
2022-10-21T10:47:47.639Z,8.90
2022-10-21T10:50:37.453Z,8.90
2022-10-21T10:53:28.696Z,9.00
2022-10-21T10:56:28.381Z,9.10
2022-10-21T10:59:28.773Z,9.20
2022-10-21T11:02:23.410Z,9.30
2022-10-21T11:05:29.454Z,9.40
2022-10-21T11:08:06.987Z,9.50
2022-10-21T11:10:49.839Z,9.70
2022-10-21T11:13:21.901Z,9.70
2022-10-21T11:16:06.864Z,9.60
2022-10-21T11:18:49.717Z,9.60
2022-10-21T11:21:22.654Z,9.60
2022-10-21T11:23:58.314Z,9.70
2022-10-21T11:26:51.140Z,9.70
2022-10-21T11:29:29.601Z,9.80
2022-10-21T11:32:11.196Z,9.80
2022-10-21T11:35:07.968Z,9.80
2022-10-21T11:37:53.499Z,9.90
2022-10-21T11:40:41.551Z,10.00
2022-10-21T11:43:30.344Z,10.10
2022-10-21T11:46:21.272Z,10.00
2022-10-21T11:48:56.806Z,10.10
2022-10-21T11:51:38.810Z,10.00
2022-10-21T11:54:30.281Z,10.10
2022-10-21T11:57:50.094Z,10.00
2022-10-21T12:00:20.532Z,10.10
2022-10-21T12:03:02.282Z,10.20
2022-10-21T12:05:34.367Z,10.10
2022-10-21T12:08:18.477Z,10.10
2022-10-21T12:10:45.227Z,10.00
2022-10-21T12:13:29.539Z,10.00
2022-10-21T12:16:11.761Z,10.00
2022-10-21T12:18:44.516Z,10.00
2022-10-21T12:21:17.857Z,10.00
2022-10-21T12:23:49.317Z,10.00
2022-10-21T12:29:33.465Z,10.10
2022-10-21T12:32:11.827Z,10.00
2022-10-21T12:34:39.043Z,10.00
2022-10-21T12:37:51.614Z,9.90
2022-10-21T12:40:36.260Z,10.00
2022-10-21T12:43:26.652Z,10.00
2022-10-21T12:46:05.020Z,9.90
2022-10-21T12:48:36.777Z,9.90
2022-10-21T12:51:07.837Z,9.90
2022-10-21T12:53:42.357Z,9.90
2022-10-21T12:56:11.123Z,9.90
2022-10-21T12:58:44.763Z,9.80
2022-10-21T13:01:37.756Z,9.80
2022-10-21T13:04:05.848Z,9.90
2022-10-21T13:06:56.470Z,9.90
2022-10-21T13:09:49.596Z,9.90
2022-10-21T13:12:29.315Z,9.90
2022-10-21T13:15:01.616Z,9.90
2022-10-21T13:17:47.403Z,9.90
2022-10-21T13:20:20.314Z,10.00
2022-10-21T13:22:49.402Z,9.90
2022-10-21T13:25:16.142Z,10.00
2022-10-21T13:27:46.227Z,10.00
2022-10-21T13:30:39.872Z,9.90
2022-10-21T13:33:22.660Z,10.00
2022-10-21T13:36:11.111Z,10.00
2022-10-21T13:38:48.008Z,10.00
2022-10-21T13:41:29.913Z,10.00
2022-10-21T13:44:06.431Z,10.00
2022-10-21T13:46:39.327Z,10.00
2022-10-21T13:49:30.572Z,10.00
2022-10-21T13:51:58.113Z,10.00
2022-10-21T13:54:24.990Z,9.90
2022-10-21T13:56:51.924Z,10.00
2022-10-21T13:59:28.001Z,10.00
2022-10-21T14:01:57.143Z,10.00
2022-10-21T14:04:29.579Z,10.00
2022-10-21T14:06:59.785Z,9.90
2022-10-21T14:09:34.308Z,10.00
2022-10-21T14:12:04.828Z,10.00
2022-10-21T14:14:34.211Z,9.90
2022-10-21T14:17:07.906Z,10.00
2022-10-21T14:19:38.339Z,9.90
2022-10-21T14:24:47.405Z,10.00
2022-10-21T14:27:18.539Z,10.00
2022-10-21T14:29:46.039Z,10.00
2022-10-21T14:32:18.246Z,9.90
2022-10-21T14:35:22.967Z,9.90
2022-10-21T14:37:56.530Z,9.90
2022-10-21T14:40:30.309Z,9.90
2022-10-21T14:42:58.182Z,9.90
2022-10-21T14:45:31.056Z,9.90
2022-10-21T14:48:15.426Z,9.90
2022-10-21T14:50:43.454Z,9.90
2022-10-21T14:53:18.840Z,9.80
2022-10-21T14:55:47.458Z,9.80
2022-10-21T15:00:56.672Z,9.80
2022-10-21T15:03:47.514Z,9.80
2022-10-21T15:06:34.673Z,9.70
2022-10-21T15:09:18.531Z,9.80
2022-10-21T15:11:47.197Z,9.70
2022-10-21T15:14:13.987Z,9.80
2022-10-21T15:16:46.827Z,9.70
2022-10-21T15:19:18.882Z,9.70
2022-10-21T15:21:48.330Z,9.70
2022-10-21T15:24:33.395Z,9.70
2022-10-21T15:27:01.374Z,9.60
2022-10-21T15:29:37.469Z,9.70
2022-10-21T15:32:05.837Z,9.60
2022-10-21T15:34:33.122Z,9.50
2022-10-21T15:37:00.278Z,9.30
2022-10-21T15:39:27.813Z,9.30
2022-10-21T15:41:54.923Z,9.10
2022-10-21T15:44:40.201Z,9.10
2022-10-21T15:47:09.678Z,9.00
2022-10-21T15:49:38.814Z,8.90
2022-10-21T15:52:05.994Z,8.70
2022-10-21T15:54:33.484Z,8.70
2022-10-21T15:57:01.759Z,8.60
2022-10-21T15:59:32.032Z,8.60
2022-10-21T16:01:59.876Z,8.70
2022-10-21T16:04:27.288Z,8.60
2022-10-21T16:06:54.617Z,8.40
2022-10-21T16:09:28.733Z,8.40
2022-10-21T16:12:00.523Z,8.50
2022-10-21T16:14:30.818Z,8.40
2022-10-21T16:16:59.227Z,8.40
2022-10-21T16:19:26.131Z,8.30
2022-10-21T16:21:52.958Z,8.30
2022-10-21T16:24:20.242Z,8.40
2022-10-21T16:26:50.286Z,8.20
2022-10-21T16:29:23.521Z,8.10
2022-10-21T16:31:51.375Z,8.00
2022-10-21T16:34:18.698Z,7.90
2022-10-21T16:36:45.730Z,7.90
2022-10-21T16:39:18.966Z,7.80
2022-10-21T16:41:46.072Z,7.80
2022-10-21T16:44:12.910Z,7.70
2022-10-21T16:46:43.266Z,7.80
2022-10-21T16:49:15.434Z,7.80
2022-10-21T16:51:44.923Z,7.80
2022-10-21T16:54:11.787Z,7.70
2022-10-21T16:56:39.485Z,7.70
2022-10-21T16:59:06.988Z,7.80
2022-10-21T17:01:36.715Z,7.90
2022-10-21T17:04:04.032Z,7.90
2022-10-21T17:06:31.429Z,8.00
2022-10-21T17:08:58.751Z,8.00
2022-10-21T17:11:39.964Z,8.00
2022-10-21T17:14:07.588Z,8.10
2022-10-21T17:16:34.792Z,8.00
2022-10-21T17:19:02.023Z,8.00
2022-10-21T17:21:31.903Z,8.00
2022-10-21T17:24:01.791Z,8.00
2022-10-21T17:26:29.581Z,8.00
2022-10-21T17:28:57.589Z,8.00
2022-10-21T17:31:28.314Z,8.20
2022-10-21T17:34:00.629Z,8.20
2022-10-21T17:36:27.751Z,8.20
2022-10-21T17:38:54.776Z,8.30
2022-10-21T17:41:22.098Z,8.30
2022-10-21T17:43:49.449Z,8.40
2022-10-21T17:46:19.374Z,8.50
2022-10-21T17:48:59.175Z,8.40
2022-10-21T17:51:26.961Z,8.40
2022-10-21T17:53:54.790Z,8.40
2022-10-21T17:56:22.374Z,8.40
2022-10-21T17:58:54.885Z,8.40
2022-10-21T18:01:24.686Z,8.50
2022-10-21T18:03:53.445Z,8.50
2022-10-21T18:06:21.226Z,8.50
2022-10-21T18:08:48.449Z,8.60
2022-10-21T18:11:17.696Z,8.80
2022-10-21T18:13:45.873Z,8.80
2022-10-21T18:16:15.937Z,8.90
2022-10-21T18:18:44.742Z,8.90
2022-10-21T18:21:15.314Z,8.80
2022-10-21T18:23:44.751Z,8.80
2022-10-21T18:26:18.533Z,8.80
2022-10-21T18:28:55.915Z,8.80
2022-10-21T18:31:24.188Z,8.80
2022-10-21T18:33:55.076Z,8.80
2022-10-21T18:36:23.269Z,8.70
2022-10-21T18:38:51.772Z,8.90
2022-10-21T18:41:21.346Z,8.80
2022-10-21T18:43:54.176Z,8.80
2022-10-21T18:46:22.259Z,8.80
2022-10-21T18:48:50.042Z,8.80
2022-10-21T18:51:18.951Z,8.80
2022-10-21T18:53:50.171Z,8.90
2022-10-21T18:56:21.173Z,8.80
2022-10-21T18:58:48.201Z,8.90
2022-10-21T19:01:15.652Z,8.90
2022-10-21T19:03:44.610Z,9.00
2022-10-21T19:06:41.048Z,9.10
2022-10-21T19:09:20.244Z,9.00
2022-10-21T19:11:48.096Z,9.00
2022-10-21T19:14:17.149Z,9.00
2022-10-21T19:16:46.534Z,9.00
2022-10-21T19:19:15.146Z,9.00
2022-10-21T19:21:42.581Z,9.10
2022-10-21T19:24:10.804Z,9.00
2022-10-21T19:26:40.763Z,9.10
2022-10-21T19:29:13.942Z,9.00
2022-10-21T19:31:42.777Z,9.00
2022-10-21T19:34:18.450Z,9.00
2022-10-21T19:36:45.773Z,9.00
2022-10-21T19:39:13.665Z,9.00
2022-10-21T19:41:41.360Z,9.10
2022-10-21T19:44:09.086Z,9.10
2022-10-21T19:46:36.790Z,9.20
2022-10-21T19:49:06.512Z,9.10
2022-10-21T19:51:34.108Z,9.10
2022-10-21T19:54:08.503Z,9.20
2022-10-21T19:56:38.502Z,9.10
2022-10-21T19:59:06.909Z,9.10
2022-10-21T20:01:35.858Z,9.10
2022-10-21T20:04:04.761Z,9.10
2022-10-21T20:06:34.811Z,9.10
2022-10-21T20:09:10.987Z,9.10
2022-10-21T20:11:39.450Z,9.10
2022-10-21T20:14:06.898Z,9.10
2022-10-21T20:16:37.092Z,9.10
2022-10-21T20:19:06.058Z,9.20
2022-10-21T20:21:34.434Z,9.10
2022-10-21T20:24:01.785Z,9.10
2022-10-21T20:26:29.202Z,9.10
2022-10-21T20:28:56.969Z,9.10
2022-10-21T20:31:23.876Z,9.10
2022-10-21T20:33:51.366Z,9.10
2022-10-21T20:36:24.863Z,9.10
2022-10-21T20:38:53.544Z,9.10
2022-10-21T20:41:22.937Z,9.10
2022-10-21T20:43:50.993Z,9.00
2022-10-21T20:48:25.031Z,11.30
2022-10-21T20:51:04.376Z,10.00
2022-10-21T20:53:31.409Z,9.60
2022-10-21T20:55:59.541Z,9.40
2022-10-21T20:58:26.368Z,9.30
2022-10-21T21:00:53.225Z,9.20
2022-10-21T21:03:20.246Z,9.30
2022-10-21T21:05:47.093Z,9.30
2022-10-21T21:08:14.193Z,9.20
2022-10-21T21:10:41.177Z,9.30
2022-10-21T21:13:08.036Z,9.30
2022-10-21T21:15:34.829Z,9.20
2022-10-21T21:18:01.693Z,9.30
2022-10-21T21:20:28.532Z,9.30
2022-10-21T21:22:55.341Z,9.30
2022-10-21T21:25:22.136Z,9.30
2022-10-21T21:27:49.009Z,9.40
2022-10-21T21:30:15.960Z,9.30
2022-10-21T21:32:43.122Z,9.20
2022-10-21T21:35:10.314Z,9.20
2022-10-21T21:37:37.182Z,9.30
2022-10-21T21:40:04.730Z,9.30
2022-10-21T21:42:31.493Z,9.20
2022-10-21T21:44:58.316Z,9.20
2022-10-21T21:47:25.111Z,9.20
2022-10-21T21:49:51.911Z,9.20
2022-10-21T21:52:18.696Z,9.20
2022-10-21T21:54:45.444Z,9.30
2022-10-21T21:57:28.347Z,9.20
2022-10-21T21:59:55.481Z,9.30
2022-10-21T22:02:22.527Z,9.20
2022-10-21T22:04:49.384Z,9.30
2022-10-21T22:07:16.462Z,9.30
2022-10-21T22:09:43.346Z,9.20
2022-10-21T22:12:14.326Z,9.20
2022-10-21T22:14:41.897Z,9.30
2022-10-21T22:17:09.486Z,9.30
2022-10-21T22:19:36.736Z,9.30
2022-10-21T22:22:04.553Z,9.30
2022-10-21T22:27:01.410Z,9.30
2022-10-21T22:29:28.174Z,9.30
2022-10-21T22:31:54.982Z,9.20
2022-10-21T22:34:22.054Z,9.20
2022-10-21T22:36:48.922Z,9.20
2022-10-21T22:39:15.761Z,9.20
2022-10-21T22:41:43.210Z,9.20
2022-10-21T22:44:12.339Z,9.20
2022-10-21T22:46:39.335Z,9.20
2022-10-21T22:49:06.336Z,9.20
2022-10-21T22:51:33.931Z,9.30
2022-10-21T22:54:01.228Z,9.30
2022-10-21T22:56:28.646Z,9.30
2022-10-21T22:58:55.844Z,9.30
2022-10-21T23:01:22.691Z,9.30
2022-10-21T23:03:49.676Z,9.30
2022-10-21T23:06:16.419Z,9.30
2022-10-21T23:08:43.348Z,9.30
2022-10-21T23:11:10.242Z,9.30
2022-10-21T23:13:37.087Z,9.30
2022-10-21T23:16:04.546Z,9.20
2022-10-21T23:18:31.428Z,9.20
2022-10-21T23:20:58.242Z,9.20
2022-10-21T23:23:25.129Z,9.30
2022-10-21T23:25:52.184Z,9.20
2022-10-21T23:30:50.943Z,9.20
2022-10-21T23:33:17.800Z,9.10
2022-10-21T23:35:44.702Z,9.00
2022-10-21T23:38:11.521Z,9.10
2022-10-21T23:40:38.488Z,9.10
2022-10-21T23:43:05.363Z,8.90
2022-10-21T23:45:32.223Z,8.90
2022-10-21T23:47:59.337Z,8.90
2022-10-21T23:50:27.162Z,8.80
2022-10-21T23:52:54.420Z,8.80
2022-10-21T23:55:21.825Z,8.90
2022-10-21T23:57:48.641Z,8.90
